Latest earthquakes

Coordinated Universal Time (UTC)

MagnitudeMag. Date Time Epicenter location: latitude, longitude loc.: lat., long. DepthDepth
2.9 2018-07-17 11:55:22 10 km to S  of PINOTEPA NACIONAL, OAXACA : 16.25°, -98.07° 9.0 km
3.1 2018-07-17 11:54:21 7 km to S  of PINOTEPA NACIONAL, OAXACA : 16.28°, -98.06° 13.0 km
3.4 2018-07-17 11:53:13 10 km to SW  of PINOTEPA NACIONAL, OAXACA : 16.32°, -98.14° 15.0 km
3.2 2018-07-17 11:51:48 6 km to N  of PINOTEPA NACIONAL, OAXACA : 16.40°, -98.05° 26.0 km
3.3 2018-07-17 11:51:33 8 km to SW  of PINOTEPA NACIONAL, OAXACA : 16.32°, -98.12° 17.0 km
3.6 2018-07-17 11:50:13 8 km to SW  of PINOTEPA NACIONAL, OAXACA : 16.30°, -98.11° 12.0 km
2.9 2018-07-17 11:49:28 11 km to S  of PINOTEPA NACIONAL, OAXACA : 16.25°, -98.06° 9.0 km
3.1 2018-07-17 11:47:49 21 km to NW  of PINOTEPA NACIONAL, OAXACA : 16.39°, -98.24° 15.0 km
3.2 2018-07-17 11:47:48 14 km to SW  of PINOTEPA NACIONAL, OAXACA : 16.23°, -98.12° 13.0 km
3.3 2018-07-17 11:46:40 28 km to SW  of OMETEPEC, GUERRERO : 16.44°, -98.48° 14.0 km
3.7 2018-07-17 11:46:37 71 km to SW  of COALCOMAN, MICHOACÁN : 18.22°, -103.50° 2.0 km
3.0 2018-07-17 11:45:53 10 km to SW  of PINOTEPA NACIONAL, OAXACA : 16.26°, -98.10° 11.0 km
4.3 2018-07-17 11:43:43 11 km to SW  of PINOTEPA NACIONAL, OAXACA : 16.28°, -98.13° 13.0 km
3.3 2018-07-17 11:40:55 41 km to E  of UNION HIDALGO, OAXACA : 16.57°, -94.46° 10.0 km
3.1 2018-07-17 11:24:18 31 km to NW  of COQUIMATLAN, COLIMA : 19.38°, -104.03° 23.0 km
3.8 2018-07-17 11:21:28 119 km to SE  of SALINA CRUZ, OAXACA : 15.22°, -94.69° 25.0 km
3.3 2018-07-17 11:10:49 78 km to SW  of COALCOMAN, MICHOACÁN : 18.15°, -103.50° 5.0 km
3.3 2018-07-17 11:08:21 76 km to SW  of COALCOMAN, MICHOACÁN : 18.17°, -103.51° 5.0 km
3.5 2018-07-17 11:04:54 16 km to SE  of SAYULA DE ALEMAN, VERACRUZ : 17.75°, -94.91° 126.0 km
3.5 2018-07-17 11:00:02 70 km to SW  of COALCOMAN, MICHOACÁN : 18.23°, -103.49° 4.0 km
4.0 2018-07-17 10:58:14 163 km to S  of CD HIDALGO, CHIAPAS : 13.23°, -92.42° 16.0 km
3.4 2018-07-17 10:50:36 78 km to SW  of COALCOMAN, MICHOACÁN : 18.15°, -103.50° 5.0 km
3.7 2018-07-17 10:49:22 23 km to N  of UNION HIDALGO, OAXACA : 16.68°, -94.85° 38.0 km
3.9 2018-07-17 10:46:58 136 km to SE  of SALINA CRUZ, OAXACA : 15.09°, -94.61° 17.0 km
3.8 2018-07-17 10:30:27 76 km to SW  of COALCOMAN, MICHOACÁN : 18.16°, -103.49° 5.0 km
3.4 2018-07-17 10:22:36 75 km to SW  of COALCOMAN, MICHOACÁN : 18.19°, -103.51° 5.0 km
3.6 2018-07-17 10:13:47 76 km to SW  of COALCOMAN, MICHOACÁN : 18.17°, -103.51° 5.0 km
3.3 2018-07-17 10:12:49 77 km to SW  of COALCOMAN, MICHOACÁN : 18.16°, -103.51° 5.0 km
3.9 2018-07-17 10:02:30 174 km to SW  of MAPASTEPEC, CHIAPAS : 14.34°, -94.04° 7.0 km
3.6 2018-07-17 09:48:49 10 km to SW  of PINOTEPA NACIONAL, OAXACA : 16.31°, -98.14° 13.0 km
3.4 2018-07-17 09:48:08 74 km to SW  of COALCOMAN, MICHOACÁN : 18.21°, -103.53° 2.0 km
4.1 2018-07-17 09:39:38 76 km to SW  of COALCOMAN, MICHOACÁN : 18.17°, -103.50° 5.0 km
3.1 2018-07-17 09:12:53 5 km to SW  of SAN MARCOS, GUERRERO : 16.78°, -99.44° 8.0 km
3.3 2018-07-17 09:12:23 7 km to SW  of PINOTEPA NACIONAL, OAXACA : 16.31°, -98.11° 23.0 km
3.6 2018-07-17 09:09:24 73 km to SW  of COALCOMAN, MICHOACÁN : 18.21°, -103.51° 2.0 km
3.3 2018-07-17 09:06:39 7 km to E  of PINOTEPA NACIONAL, OAXACA : 16.34°, -97.98° 3.0 km
3.4 2018-07-17 09:04:22 75 km to SW  of COALCOMAN, MICHOACÁN : 18.15°, -103.43° 11.0 km
3.5 2018-07-17 09:04:22 74 km to SW  of COALCOMAN, MICHOACÁN : 18.19°, -103.50° 4.0 km
3.4 2018-07-17 09:02:49 22 km to NW  of RIO GRANDE, OAXACA : 16.15°, -97.58° 32.0 km
3.2 2018-07-17 09:01:19 65 km to S  of COALCOMAN, MICHOACÁN : 18.21°, -103.31° 21.0 km
5.1 2018-07-17 08:54:37 80 km to SW  of COALCOMAN, MICHOACÁN : 18.14°, -103.52° 5.0 km
3.3 2018-07-17 08:06:11 21 km to W  of PINOTEPA NACIONAL, OAXACA : 16.32°, -98.25° 16.0 km
3.9 2018-07-17 07:11:23 33 km to S  of SALINA CRUZ, OAXACA : 15.89°, -95.18° 43.0 km
3.4 2018-07-17 07:04:59 46 km to SW  of PINOTEPA NACIONAL, OAXACA : 16.01°, -98.31° 3.0 km
3.5 2018-07-17 06:54:30 24 km to N  of UNION HIDALGO, OAXACA : 16.69°, -94.82° 60.0 km
4.0 2018-07-17 06:41:09 23 km to SE  of MATIAS ROMERO, OAXACA : 16.70°, -94.92° 20.0 km
4.2 2018-07-17 06:35:58 59 km to SW  of PINOTEPA NACIONAL, OAXACA : 15.99°, -98.47° 12.0 km
3.8 2018-07-17 06:25:17 120 km to SE  of SALINA CRUZ, OAXACA : 15.23°, -94.66° 22.0 km
3.8 2018-07-17 05:46:38 7 km to NW  of SALINA CRUZ, OAXACA : 16.22°, -95.25° 66.0 km
3.6 2018-07-17 05:40:12 18 km to W  of PINOTEPA NACIONAL, OAXACA : 16.34°, -98.22° 17.0 km
3.3 2018-07-17 05:36:12 25 km to SW  of TELOLOAPAN, GUERRERO : 18.18°, -100.01° 58.0 km
3.8 2018-07-17 05:27:26 12 km to N  of S BLAS ATEMPA, OAXACA : 16.43°, -95.20° 66.0 km
3.7 2018-07-17 05:01:42 104 km to SE  of SALINA CRUZ, OAXACA : 15.45°, -94.59° 7.0 km
3.5 2018-07-17 04:59:14 11 km to NW  of MAPASTEPEC, CHIAPAS : 15.51°, -92.97° 110.0 km
3.4 2018-07-17 04:44:29 11 km to S  of PINOTEPA NACIONAL, OAXACA : 16.24°, -98.04° 8.0 km
4.3 2018-07-17 04:08:27 42 km to NW  of BERRIOZABAL, CHIAPAS : 17.15°, -93.42° 150.0 km
3.5 2018-07-17 04:04:18 24 km to SW  of OMETEPEC, GUERRERO : 16.50°, -98.52° 7.0 km
4.0 2018-07-17 03:59:45 95 km to SE  of SALINA CRUZ, OAXACA : 15.41°, -94.82° 23.0 km
3.6 2018-07-17 03:51:47 17 km to SW  of OMETEPEC, GUERRERO : 16.54°, -98.45° 9.0 km
3.1 2018-07-17 03:27:14 31 km to W  of CIHUATLAN, JALISCO : 19.19°, -104.85° 15.0 km
3.6 2018-07-17 03:15:41 93 km to SE  of SAN MARCOS, GUERRERO : 16.00°, -99.12° 25.0 km
3.5 2018-07-17 01:59:26 20 km to NE  of UNION HIDALGO, OAXACA : 16.56°, -94.67° 11.0 km
4.0 2018-07-17 01:43:16 110 km to SW  of TONALA, CHIAPAS : 15.32°, -94.41° 30.0 km
3.6 2018-07-17 01:41:22 31 km to S  of ARCELIA, GUERRERO : 18.03°, -100.26° 51.0 km
3.5 2018-07-17 00:47:12 28 km to SE  of SALINA CRUZ, OAXACA : 15.95°, -95.09° 11.0 km
3.5 2018-07-17 00:35:14 26 km to S  of PIJIJIAPAN, CHIAPAS : 15.45°, -93.22° 100.0 km
3.5 2018-07-17 00:05:02 54 km to SW  of CD ALTAMIRANO, GUERRERO : 18.03°, -101.05° 80.0 km

For more information, see our Earthquakes catalog

Magnitude < 4.0

Magnitude >= 4.0 & < 6.0

Magnitude >= 6.0